createdAt,value
2022-08-23T00:03:52.721Z,25.9
2022-08-23T00:09:55.971Z,25.9
2022-08-23T00:15:34.420Z,25.9
2022-08-23T00:21:21.767Z,25.9
2022-08-23T00:26:58.510Z,25.9
2022-08-23T00:32:43.108Z,25.9
2022-08-23T00:39:03.333Z,25.9
2022-08-23T00:44:24.623Z,25.9
2022-08-23T00:49:46.595Z,25.9
2022-08-23T00:55:33.390Z,25.9
2022-08-23T01:00:39.632Z,25.9
2022-08-23T01:06:22.833Z,25.9
2022-08-23T01:11:50.698Z,25.9
2022-08-23T01:17:35.795Z,25.9
2022-08-23T01:23:05.673Z,25.9
2022-08-23T01:29:38.159Z,25.9
2022-08-23T01:41:03.687Z,25.9
2022-08-23T01:46:46.355Z,25.9
2022-08-23T01:52:06.750Z,25.9
2022-08-23T01:58:04.888Z,25.9
2022-08-23T02:03:29.109Z,25.9
2022-08-23T02:09:16.023Z,25.9
2022-08-23T02:14:57.252Z,25.9
2022-08-23T02:20:46.562Z,25.9
2022-08-23T02:26:30.899Z,25.9
2022-08-23T02:32:09.879Z,25.9
2022-08-23T02:37:55.279Z,25.8
2022-08-23T02:43:37.337Z,25.8
2022-08-23T02:48:45.626Z,25.9
2022-08-23T02:54:05.953Z,25.8
2022-08-23T02:59:52.783Z,25.8
2022-08-23T03:05:30.017Z,25.8
2022-08-23T03:11:29.061Z,25.8
2022-08-23T03:17:07.323Z,25.8
2022-08-23T03:22:47.693Z,25.8
2022-08-23T03:28:18.037Z,25.8
2022-08-23T03:34:12.325Z,25.8
2022-08-23T03:39:59.449Z,25.7
2022-08-23T03:45:46.251Z,25.6
2022-08-23T03:51:27.169Z,25.6
2022-08-23T03:57:05.444Z,25.5
2022-08-23T04:02:41.738Z,25.5
2022-08-23T04:08:21.068Z,25.4
2022-08-23T04:14:18.771Z,25.4
2022-08-23T04:19:58.865Z,25.4
2022-08-23T04:26:02.614Z,25.4
2022-08-23T04:31:57.833Z,25.3
2022-08-23T04:38:01.997Z,25.3
2022-08-23T04:43:50.496Z,25.3
2022-08-23T04:49:27.766Z,25.3
2022-08-23T04:55:11.734Z,25.2
2022-08-23T05:00:51.475Z,25.2
2022-08-23T05:06:29.900Z,25.3
2022-08-23T05:12:16.127Z,25.3
2022-08-23T05:17:58.782Z,25.3
2022-08-23T05:23:50.804Z,25.3
2022-08-23T05:29:36.717Z,25.3
2022-08-23T05:35:31.750Z,25.3
2022-08-23T05:41:38.125Z,25.3
2022-08-23T05:47:28.156Z,25.3
2022-08-23T05:53:23.325Z,25.3
2022-08-23T05:59:03.845Z,25.3
2022-08-23T06:04:56.839Z,25.3
2022-08-23T06:10:41.669Z,25.3
2022-08-23T06:16:31.783Z,25.3
2022-08-23T06:22:07.879Z,25.3
2022-08-23T06:27:30.888Z,25.3
2022-08-23T06:33:28.654Z,25.5
2022-08-23T06:39:41.595Z,25.6
2022-08-23T06:45:55.016Z,40.9
2022-08-23T06:51:59.480Z,36.5
2022-08-23T06:57:47.618Z,44.6
2022-08-23T07:04:00.548Z,40.1
2022-08-23T07:10:01.948Z,40.3
2022-08-23T07:15:43.490Z,38.1
2022-08-23T07:21:30.659Z,40.9
2022-08-23T07:27:11.733Z,43.5
2022-08-23T07:32:56.640Z,42.8
2022-08-23T07:38:47.596Z,44.8
2022-08-23T07:44:43.769Z,46.4
2022-08-23T07:50:36.206Z,43.8
2022-08-23T07:56:36.263Z,41.4
2022-08-23T08:02:13.286Z,41.4
2022-08-23T08:08:20.093Z,42.3
2022-08-23T08:13:57.249Z,41.1
2022-08-23T08:19:36.455Z,41
2022-08-23T08:25:01.124Z,41.4
2022-08-23T08:30:17.245Z,41.4
2022-08-23T08:35:42.274Z,40.9
2022-08-23T08:41:35.288Z,38.5
2022-08-23T08:47:22.269Z,36.6
2022-08-23T08:53:05.321Z,45.8
2022-08-23T08:58:52.402Z,42.1
2022-08-23T09:04:53.887Z,41.3
2022-08-23T09:10:36.856Z,41.3
2022-08-23T09:16:20.953Z,41.6
2022-08-23T09:22:01.506Z,42.4
2022-08-23T09:27:49.421Z,43.4
2022-08-23T09:33:27.927Z,45.4
2022-08-23T09:39:16.217Z,52.7
2022-08-23T09:44:45.608Z,54.5
2022-08-23T09:50:18.596Z,55.6
2022-08-23T09:56:07.473Z,54.9
2022-08-23T10:01:45.796Z,54.6
2022-08-23T10:07:38.031Z,52
2022-08-23T10:13:07.428Z,53.3
2022-08-23T10:18:46.178Z,51.9
2022-08-23T10:24:12.257Z,52.6
2022-08-23T10:29:52.525Z,52.3
2022-08-23T10:35:23.515Z,54.3
2022-08-23T10:40:53.613Z,54.6
2022-08-23T10:46:33.753Z,53.7
2022-08-23T10:52:25.074Z,57.3
2022-08-23T10:58:12.033Z,54.3
2022-08-23T11:03:53.375Z,52.6
2022-08-23T11:09:36.860Z,52.9
2022-08-23T11:15:30.399Z,53.8
2022-08-23T11:21:07.687Z,55.2
2022-08-23T11:26:45.530Z,54.8
2022-08-23T11:32:31.089Z,55.3
2022-08-23T11:38:22.531Z,54.5
2022-08-23T11:43:44.878Z,54.6
2022-08-23T11:49:22.986Z,54.9
2022-08-23T11:55:01.813Z,55.6
2022-08-23T12:00:33.867Z,55.8
2022-08-23T12:05:59.826Z,55.8
2022-08-23T12:11:44.937Z,55.6
2022-08-23T12:17:41.384Z,55.6
2022-08-23T12:23:25.543Z,55.5
2022-08-23T12:29:11.677Z,55.5
2022-08-23T12:34:42.922Z,55.1
2022-08-23T12:40:19.356Z,54.5
2022-08-23T12:46:08.009Z,52.9
2022-08-23T12:51:39.786Z,48.5
2022-08-23T12:57:21.555Z,44.8
2022-08-23T13:03:28.113Z,42
2022-08-23T13:09:07.476Z,40.3
2022-08-23T13:14:37.027Z,39.1
2022-08-23T13:20:00.231Z,38.2
2022-08-23T13:25:57.450Z,37.4
2022-08-23T13:31:19.830Z,36.6
2022-08-23T13:37:20.067Z,36
2022-08-23T13:43:09.996Z,35.4
2022-08-23T13:48:59.345Z,34.9
2022-08-23T13:55:41.907Z,34.4
2022-08-23T14:01:28.835Z,34
2022-08-23T14:07:07.756Z,33.6
2022-08-23T14:12:46.384Z,33.3
2022-08-23T14:20:46.625Z,33
2022-08-23T14:26:37.052Z,32.6
2022-08-23T14:32:23.393Z,32.3
2022-08-23T14:39:02.745Z,32.1
2022-08-23T14:44:48.125Z,32
2022-08-23T14:50:27.826Z,31.9
2022-08-23T14:56:23.135Z,31.7
2022-08-23T15:01:48.989Z,31.5
2022-08-23T15:07:51.566Z,31.4
2022-08-23T15:15:41.553Z,31.3
2022-08-23T15:21:19.240Z,31.2
2022-08-23T15:27:17.522Z,31.1
2022-08-23T15:33:30.927Z,31
2022-08-23T15:39:08.879Z,31
2022-08-23T15:44:42.220Z,30.9
2022-08-23T15:50:09.813Z,30.9
2022-08-23T15:55:35.345Z,30.9
2022-08-23T16:01:16.440Z,30.9
2022-08-23T16:07:27.582Z,30.9
2022-08-23T16:13:07.728Z,30.9
2022-08-23T16:18:44.873Z,30.8
2022-08-23T16:24:26.167Z,30.8
2022-08-23T16:30:15.788Z,30.8
2022-08-23T16:36:09.447Z,30.8
2022-08-23T16:41:53.233Z,30.8
2022-08-23T16:47:30.908Z,30.7
2022-08-23T16:53:14.325Z,30.6
2022-08-23T16:59:07.098Z,30.6
2022-08-23T17:04:50.891Z,30.6
2022-08-23T17:10:31.379Z,30.6
2022-08-23T17:16:14.773Z,30.5
2022-08-23T17:21:52.292Z,30.5
2022-08-23T17:27:35.751Z,30.4
2022-08-23T17:33:21.846Z,30.4
2022-08-23T17:39:05.471Z,30.4
2022-08-23T17:44:35.462Z,30.4
2022-08-23T17:49:58.654Z,30.4
2022-08-23T17:55:26.964Z,30.3
2022-08-23T18:01:31.341Z,30.3
2022-08-23T18:07:23.126Z,30.3
2022-08-23T18:13:04.892Z,30.3
2022-08-23T18:18:47.569Z,30.3
2022-08-23T18:24:25.639Z,30.3
2022-08-23T18:30:12.312Z,30.3
2022-08-23T18:36:03.855Z,30.3
2022-08-23T18:41:54.427Z,30.4
2022-08-23T18:47:40.581Z,31.2
2022-08-23T18:53:37.612Z,32.1
2022-08-23T18:59:18.762Z,32.8
2022-08-23T19:04:57.648Z,32.9
2022-08-23T19:10:19.802Z,33.1
2022-08-23T19:16:04.260Z,33
2022-08-23T19:21:42.308Z,32.9
2022-08-23T19:26:48.823Z,32.8
2022-08-23T19:32:32.104Z,32.7
2022-08-23T19:38:48.964Z,32.6
2022-08-23T19:44:14.538Z,32.6
2022-08-23T19:50:02.213Z,32.5
2022-08-23T19:55:54.523Z,32.4
2022-08-23T20:01:18.049Z,32.4
2022-08-23T20:06:39.827Z,32.3
2022-08-23T20:12:04.271Z,32.2
2022-08-23T20:17:26.332Z,32.2
2022-08-23T20:23:08.819Z,32.1
2022-08-23T20:29:32.975Z,32.1
2022-08-23T20:34:55.939Z,32
2022-08-23T20:40:03.157Z,31.9
2022-08-23T20:45:21.827Z,31.9
2022-08-23T20:50:53.135Z,31.8
2022-08-23T20:56:19.047Z,31.8
2022-08-23T21:02:03.557Z,31.7
2022-08-23T21:07:47.453Z,31.6
2022-08-23T21:13:26.874Z,31.6
2022-08-23T21:19:12.109Z,31.5
2022-08-23T21:24:34.645Z,31.4
2022-08-23T21:30:21.500Z,31.4
2022-08-23T21:35:59.107Z,31.4
2022-08-23T21:41:37.230Z,31.4
2022-08-23T21:47:06.396Z,31.4
2022-08-23T21:52:29.994Z,31.4
2022-08-23T21:58:28.019Z,31.3
2022-08-23T22:04:10.088Z,31.3
2022-08-23T22:09:51.683Z,31.2
2022-08-23T22:15:39.624Z,31.2
2022-08-23T22:21:16.626Z,31.1
2022-08-23T22:26:28.488Z,31.1
2022-08-23T22:31:50.937Z,31.1
2022-08-23T22:37:12.357Z,31
2022-08-23T22:43:10.651Z,30.9
2022-08-23T22:48:54.040Z,30.9
2022-08-23T22:54:34.647Z,30.9
2022-08-23T23:00:27.661Z,30.8
2022-08-23T23:06:23.607Z,30.8
2022-08-23T23:12:00.985Z,30.8
2022-08-23T23:17:07.862Z,30.8
2022-08-23T23:22:44.801Z,30.8
2022-08-23T23:28:25.625Z,30.8
2022-08-23T23:34:06.633Z,30.8
2022-08-23T23:39:50.747Z,30.7
2022-08-23T23:45:38.106Z,30.7
2022-08-23T23:51:04.305Z,30.6
2022-08-23T23:56:27.423Z,30.6
